Faysville, Texas
Current Conditions -  °F | °C
As of 9:53 AM on Sunday 21 Dec 2014 (Local Time) from KMFE Reporting Station
Haze Haze  
Wind Chill: 56°   Ceiling: 600
Heat Index: 56°   Visibility: 5mi
Dew Point: 54°   Wind: 9mph
Humidity: 93%   Direction: 320°NW
Pressure: 30.11"   Gusts: NA
Location:  26.2938°N, 98.1548°W
Report Text: KMFE 211553Z 32008KT 5SM BR OVC006 13/12 A3011 RMK AO2 SLP196 T01330122
Loading
Personal Weather Stations






























Interactive Weather Map New forecast layout! Learn more

10-Day Weather Forecast

Advertisements
Track Severe Weather on mobile